Stephanie A Settoon — WDD9594 — position and weather

sailwx.info

Track history (hours):
 
Tides and Currents Weather Stations Pressure Air Temp Water Temp Dewpoint Dewpoint Depression Visibility Wind Speed Wind Dir Waves Ship Positions

Stephanie A Settoon

Owner: Settoon Towing LLC, Houma, LA. More information available from US FCC via Universal Licensing System and Coast Guard Vessel Documentation Center.

Last reported at 2017-Dec-03 17:33 UTC. Time now 2017-Dec-12 21:57 UTC.
Position N 29°25' W 090°44'.
Warning: this ship's position is 9 days out of date.

Length 15 m.

Type: Other ship. MMSI: 367313530.

Date/timePositionNaut miles runAvg speedWind from/ knotsBaromVisibWave heightAir tempDewpointWater temp
2017-Dec-03 17:33N 29°25' W 090°44'1 7.6
2017-Dec-03 17:24N 29°26' W 090°43'3 7.1
2017-Dec-03 17:01N 29°29' W 090°43'3 6.3
2017-Dec-03 16:31N 29°32' W 090°42'3 6.1
2017-Dec-03 16:01N 29°35' W 090°43'0 0.2
2017-Dec-03 15:31N 29°35' W 090°43'0 0.0
2017-Dec-03 15:01N 29°35' W 090°43'0 0.0
2017-Dec-03 14:31N 29°35' W 090°43'0 0.0
2017-Dec-03 14:00N 29°35' W 090°43'0 0.0
2017-Dec-03 13:30N 29°35' W 090°43'0 0.0
2017-Dec-03 13:01N 29°35' W 090°43'0 0.0
2017-Dec-03 12:31N 29°35' W 090°43'0 0.0
2017-Dec-03 12:01N 29°35' W 090°43'0 0.0
2017-Dec-03 11:31N 29°35' W 090°43'0 0.0
2017-Dec-03 11:01N 29°35' W 090°43'0 0.0
2017-Dec-03 10:31N 29°35' W 090°43'0 0.0
2017-Dec-03 10:01N 29°35' W 090°43'0 0.0
2017-Dec-03 09:31N 29°35' W 090°43'0 0.0
2017-Dec-03 09:01N 29°35' W 090°43'0 0.0
2017-Dec-03 08:30N 29°35' W 090°43'0 0.0
2017-Dec-03 08:00N 29°35' W 090°43'0 0.0
2017-Dec-03 07:30N 29°35' W 090°43'0 0.0
2017-Dec-03 07:00N 29°35' W 090°43'0 0.0
2017-Dec-03 06:31N 29°35' W 090°43'0 0.0
2017-Dec-03 06:01N 29°35' W 090°43'0 0.0
2017-Dec-03 05:31N 29°35' W 090°43'0 0.0
2017-Dec-03 05:01N 29°35' W 090°43'0 0.0
2017-Dec-03 04:31N 29°35' W 090°43'0 0.0
2017-Dec-03 04:01N 29°35' W 090°43'0 0.0
2017-Dec-03 03:31N 29°35' W 090°43'0 0.0
2017-Dec-03 03:01N 29°35' W 090°43'0 0.0
2017-Dec-03 02:31N 29°35' W 090°43'0 0.0
2017-Dec-03 02:01N 29°35' W 090°43'0 0.0
2017-Dec-03 01:31N 29°35' W 090°43'0 0.0
2017-Dec-03 01:01N 29°35' W 090°43'0 0.0
2017-Dec-03 00:31N 29°35' W 090°43'0 0.0
2017-Dec-03 00:01N 29°35' W 090°43'0 0.0
2017-Dec-02 23:31N 29°35' W 090°43'0 0.0
2017-Dec-02 23:00N 29°35' W 090°43'0 0.0
2017-Dec-02 22:31N 29°35' W 090°43'0 0.0
2017-Dec-02 22:01N 29°35' W 090°43'0 0.0
2017-Dec-02 21:31N 29°35' W 090°43'0 0.0
2017-Dec-02 21:01N 29°35' W 090°43'0 0.0
2017-Dec-02 20:31N 29°35' W 090°43'0 0.0
2017-Dec-02 20:01N 29°35' W 090°43'0 0.0
2017-Dec-02 19:30N 29°35' W 090°43'0 0.0
2017-Dec-02 19:01N 29°35' W 090°43'0 0.0
2017-Dec-02 18:31N 29°35' W 090°43'0 0.0
2017-Dec-02 18:01N 29°35' W 090°43'0 0.0
2017-Dec-02 17:31N 29°35' W 090°43'0 0.0
2017-Dec-02 17:01N 29°35' W 090°43'1 1.2
2017-Dec-02 16:30N 29°34' W 090°43'2 4.4
2017-Dec-02 16:00N 29°33' W 090°45'3 5.8
2017-Dec-02 15:26N 29°32' W 090°49'7 0.2
2017-Dec-01 10:32N 29°34' W 090°57'1 5.0
2017-Dec-01 10:25N 29°34' W 090°56'3 5.0
2017-Dec-01 09:48N 29°32' W 090°53'2 4.9
2017-Dec-01 09:29N 29°32' W 090°51'2 5.1
2017-Dec-01 09:00N 29°32' W 090°48'2 4.9
2017-Dec-01 08:30N 29°32' W 090°46'2 4.6
2017-Dec-01 08:00N 29°34' W 090°44'2 4.3
2017-Dec-01 07:30N 29°36' W 090°43'2 3.1
2017-Dec-01 07:00N 29°36' W 090°41'2 4.9
2017-Dec-01 06:30N 29°35' W 090°38'2 4.5
2017-Dec-01 06:00N 29°35' W 090°36'2 3.3
2017-Dec-01 05:30N 29°34' W 090°34'2 4.3
2017-Dec-01 05:00N 29°34' W 090°32'2 4.5
2017-Dec-01 04:30N 29°34' W 090°29'4 4.7
2017-Dec-01 03:44N 29°33' W 090°25'6 0.2
2017-Nov-29 16:28N 29°34' W 090°32'3 6.1
2017-Nov-29 16:00N 29°35' W 090°35'3 5.9
2017-Nov-29 15:30N 29°35' W 090°38'2 3.5
2017-Nov-29 15:00N 29°36' W 090°40'0 0.9
2017-Nov-29 14:30N 29°36' W 090°41'0 0.0
2017-Nov-29 14:00N 29°36' W 090°41'0 0.0
2017-Nov-29 13:30N 29°36' W 090°41'0 0.0
2017-Nov-29 13:00N 29°36' W 090°41'0 0.0
2017-Nov-29 12:30N 29°36' W 090°41'0 0.0
2017-Nov-29 11:59N 29°36' W 090°41'0 0.0
2017-Nov-29 11:25N 29°36' W 090°41'0 0.0
2017-Nov-29 10:22N 29°36' W 090°41'0 0.0
2017-Nov-29 10:00N 29°36' W 090°41'1 1.4
2017-Nov-29 09:30N 29°37' W 090°41'1 3.0
2017-Nov-29 09:00N 29°36' W 090°43'2 3.7
2017-Nov-29 08:30N 29°34' W 090°44'1 2.7
2017-Nov-29 08:00N 29°33' W 090°45'1 2.4
2017-Nov-29 07:30N 29°32' W 090°46'11 0.3
2017-Nov-27 10:46N 29°36' W 090°58'2 5.7
2017-Nov-27 10:28N 29°34' W 090°57'3 5.9
2017-Nov-27 10:01N 29°33' W 090°54'3 5.9
2017-Nov-27 09:30N 29°32' W 090°51'3 6.1
2017-Nov-27 09:01N 29°32' W 090°47'3 5.2
2017-Nov-27 08:30N 29°34' W 090°45'2 4.2
2017-Nov-27 08:01N 29°35' W 090°43'0 0.0
2017-Nov-27 07:30N 29°35' W 090°43'0 0.0
2017-Nov-27 07:00N 29°35' W 090°43'0 0.0
2017-Nov-27 06:31N 29°35' W 090°43'0 0.0
2017-Nov-27 06:01N 29°35' W 090°43'1 2.4
2017-Nov-27 05:31N 29°34' W 090°43'3 5.8
2017-Nov-27 05:00N 29°31' W 090°43'3 5.9
2017-Nov-27 04:30N 29°28' W 090°43'3 5.8
2017-Nov-27 04:00N 29°25' W 090°43'4 5.8
2017-Nov-27 03:19N 29°21' W 090°44'4 0.1
2017-Nov-26 01:10N 29°25' W 090°44'1 8.0
2017-Nov-26 01:00N 29°26' W 090°43'4 8.1
2017-Nov-26 00:31N 29°30' W 090°43'4 7.6
2017-Nov-26 00:01N 29°34' W 090°43'2 3.2
2017-Nov-25 23:31N 29°34' W 090°45'3 6.3
2017-Nov-25 23:00N 29°32' W 090°48'  
Track history (hours):
 
Tides and Currents Weather Stations Pressure Air Temp Water Temp Dewpoint Dewpoint Depression Visibility Wind Speed Wind Dir Waves Ship Positions

Stephanie A Settoon

Owner: Settoon Towing LLC, Houma, LA. More information available from US FCC via Universal Licensing System and Coast Guard Vessel Documentation Center.

Last reported at 2017-Dec-03 17:33 UTC. Time now 2017-Dec-12 21:57 UTC.
Position N 29°25' W 090°44'.
Warning: this ship's position is 9 days out of date.

Length 15 m.

Type: Other ship. MMSI: 367313530.

Date/timePositionNaut miles runAvg speedWind from/ knotsBaromVisibWave heightAir tempDewpointWater temp
2017-Dec-03 17:33N 29°25' W 090°44'1 7.6
2017-Dec-03 17:24N 29°26' W 090°43'3 7.1
2017-Dec-03 17:01N 29°29' W 090°43'3 6.3
2017-Dec-03 16:31N 29°32' W 090°42'3 6.1
2017-Dec-03 16:01N 29°35' W 090°43'0 0.2
2017-Dec-03 15:31N 29°35' W 090°43'0 0.0
2017-Dec-03 15:01N 29°35' W 090°43'0 0.0
2017-Dec-03 14:31N 29°35' W 090°43'0 0.0
2017-Dec-03 14:00N 29°35' W 090°43'0 0.0
2017-Dec-03 13:30N 29°35' W 090°43'0 0.0
2017-Dec-03 13:01N 29°35' W 090°43'0 0.0
2017-Dec-03 12:31N 29°35' W 090°43'0 0.0
2017-Dec-03 12:01N 29°35' W 090°43'0 0.0
2017-Dec-03 11:31N 29°35' W 090°43'0 0.0
2017-Dec-03 11:01N 29°35' W 090°43'0 0.0
2017-Dec-03 10:31N 29°35' W 090°43'0 0.0
2017-Dec-03 10:01N 29°35' W 090°43'0 0.0
2017-Dec-03 09:31N 29°35' W 090°43'0 0.0
2017-Dec-03 09:01N 29°35' W 090°43'0 0.0
2017-Dec-03 08:30N 29°35' W 090°43'0 0.0
2017-Dec-03 08:00N 29°35' W 090°43'0 0.0
2017-Dec-03 07:30N 29°35' W 090°43'0 0.0
2017-Dec-03 07:00N 29°35' W 090°43'0 0.0
2017-Dec-03 06:31N 29°35' W 090°43'0 0.0
2017-Dec-03 06:01N 29°35' W 090°43'0 0.0
2017-Dec-03 05:31N 29°35' W 090°43'0 0.0
2017-Dec-03 05:01N 29°35' W 090°43'0 0.0
2017-Dec-03 04:31N 29°35' W 090°43'0 0.0
2017-Dec-03 04:01N 29°35' W 090°43'0 0.0
2017-Dec-03 03:31N 29°35' W 090°43'0 0.0
2017-Dec-03 03:01N 29°35' W 090°43'0 0.0
2017-Dec-03 02:31N 29°35' W 090°43'0 0.0
2017-Dec-03 02:01N 29°35' W 090°43'0 0.0
2017-Dec-03 01:31N 29°35' W 090°43'0 0.0
2017-Dec-03 01:01N 29°35' W 090°43'0 0.0
2017-Dec-03 00:31N 29°35' W 090°43'0 0.0
2017-Dec-03 00:01N 29°35' W 090°43'0 0.0
2017-Dec-02 23:31N 29°35' W 090°43'0 0.0
2017-Dec-02 23:00N 29°35' W 090°43'0 0.0
2017-Dec-02 22:31N 29°35' W 090°43'0 0.0
2017-Dec-02 22:01N 29°35' W 090°43'0 0.0
2017-Dec-02 21:31N 29°35' W 090°43'0 0.0
2017-Dec-02 21:01N 29°35' W 090°43'0 0.0
2017-Dec-02 20:31N 29°35' W 090°43'0 0.0
2017-Dec-02 20:01N 29°35' W 090°43'0 0.0
2017-Dec-02 19:30N 29°35' W 090°43'0 0.0
2017-Dec-02 19:01N 29°35' W 090°43'0 0.0
2017-Dec-02 18:31N 29°35' W 090°43'0 0.0
2017-Dec-02 18:01N 29°35' W 090°43'0 0.0
2017-Dec-02 17:31N 29°35' W 090°43'0 0.0
2017-Dec-02 17:01N 29°35' W 090°43'1 1.2
2017-Dec-02 16:30N 29°34' W 090°43'2 4.4
2017-Dec-02 16:00N 29°33' W 090°45'3 5.8
2017-Dec-02 15:26N 29°32' W 090°49'7 0.2
2017-Dec-01 10:32N 29°34' W 090°57'1 5.0
2017-Dec-01 10:25N 29°34' W 090°56'3 5.0
2017-Dec-01 09:48N 29°32' W 090°53'2 4.9
2017-Dec-01 09:29N 29°32' W 090°51'2 5.1
2017-Dec-01 09:00N 29°32' W 090°48'2 4.9
2017-Dec-01 08:30N 29°32' W 090°46'2 4.6
2017-Dec-01 08:00N 29°34' W 090°44'2 4.3
2017-Dec-01 07:30N 29°36' W 090°43'2 3.1
2017-Dec-01 07:00N 29°36' W 090°41'2 4.9
2017-Dec-01 06:30N 29°35' W 090°38'2 4.5
2017-Dec-01 06:00N 29°35' W 090°36'2 3.3
2017-Dec-01 05:30N 29°34' W 090°34'2 4.3
2017-Dec-01 05:00N 29°34' W 090°32'2 4.5
2017-Dec-01 04:30N 29°34' W 090°29'4 4.7
2017-Dec-01 03:44N 29°33' W 090°25'6 0.2
2017-Nov-29 16:28N 29°34' W 090°32'3 6.1
2017-Nov-29 16:00N 29°35' W 090°35'3 5.9
2017-Nov-29 15:30N 29°35' W 090°38'2 3.5
2017-Nov-29 15:00N 29°36' W 090°40'0 0.9
2017-Nov-29 14:30N 29°36' W 090°41'0 0.0
2017-Nov-29 14:00N 29°36' W 090°41'0 0.0
2017-Nov-29 13:30N 29°36' W 090°41'0 0.0
2017-Nov-29 13:00N 29°36' W 090°41'0 0.0
2017-Nov-29 12:30N 29°36' W 090°41'0 0.0
2017-Nov-29 11:59N 29°36' W 090°41'0 0.0
2017-Nov-29 11:25N 29°36' W 090°41'0 0.0
2017-Nov-29 10:22N 29°36' W 090°41'0 0.0
2017-Nov-29 10:00N 29°36' W 090°41'1 1.4
2017-Nov-29 09:30N 29°37' W 090°41'1 3.0
2017-Nov-29 09:00N 29°36' W 090°43'2 3.7
2017-Nov-29 08:30N 29°34' W 090°44'1 2.7
2017-Nov-29 08:00N 29°33' W 090°45'1 2.4
2017-Nov-29 07:30N 29°32' W 090°46'11 0.3
2017-Nov-27 10:46N 29°36' W 090°58'2 5.7
2017-Nov-27 10:28N 29°34' W 090°57'3 5.9
2017-Nov-27 10:01N 29°33' W 090°54'3 5.9
2017-Nov-27 09:30N 29°32' W 090°51'3 6.1
2017-Nov-27 09:01N 29°32' W 090°47'3 5.2
2017-Nov-27 08:30N 29°34' W 090°45'2 4.2
2017-Nov-27 08:01N 29°35' W 090°43'0 0.0
2017-Nov-27 07:30N 29°35' W 090°43'0 0.0
2017-Nov-27 07:00N 29°35' W 090°43'0 0.0
2017-Nov-27 06:31N 29°35' W 090°43'0 0.0
2017-Nov-27 06:01N 29°35' W 090°43'1 2.4
2017-Nov-27 05:31N 29°34' W 090°43'3 5.8
2017-Nov-27 05:00N 29°31' W 090°43'3 5.9
2017-Nov-27 04:30N 29°28' W 090°43'3 5.8
2017-Nov-27 04:00N 29°25' W 090°43'4 5.8
2017-Nov-27 03:19N 29°21' W 090°44'4 0.1
2017-Nov-26 01:10N 29°25' W 090°44'1 8.0
2017-Nov-26 01:00N 29°26' W 090°43'4 8.1
2017-Nov-26 00:31N 29°30' W 090°43'4 7.6
2017-Nov-26 00:01N 29°34' W 090°43'2 3.2
2017-Nov-25 23:31N 29°34' W 090°45'3 6.3
2017-Nov-25 23:00N 29°32' W 090°48'  

Dump ship's entire track history